sensor_id;sensor_type;location;lat;lon;timestamp;P1;durP1;ratioP1;P2;durP2;ratioP2
41623;SDS011;27319;50.306;18.926;2023-04-24T00:01:44;29.02;;;15.82;;
41623;SDS011;27319;50.306;18.926;2023-04-24T00:05:45;26.20;;;14.60;;
41623;SDS011;27319;50.306;18.926;2023-04-24T00:09:46;21.80;;;13.40;;
41623;SDS011;27319;50.306;18.926;2023-04-24T00:13:47;25.23;;;14.15;;
41623;SDS011;27319;50.306;18.926;2023-04-24T00:17:47;23.65;;;14.00;;
41623;SDS011;27319;50.306;18.926;2023-04-24T00:21:48;19.60;;;13.00;;
41623;SDS011;27319;50.306;18.926;2023-04-24T00:25:49;18.05;;;11.85;;
41623;SDS011;27319;50.306;18.926;2023-04-24T00:29:37;22.00;;;12.65;;
41623;SDS011;27319;50.306;18.926;2023-04-24T00:32:38;22.48;;;12.02;;
41623;SDS011;27319;50.306;18.926;2023-04-24T00:35:39;18.05;;;12.27;;
41623;SDS011;27319;50.306;18.926;2023-04-24T00:38:40;19.73;;;12.13;;
41623;SDS011;27319;50.306;18.926;2023-04-24T00:42:41;19.02;;;11.45;;
41623;SDS011;27319;50.306;18.926;2023-04-24T00:46:42;17.70;;;11.55;;
41623;SDS011;27319;50.306;18.926;2023-04-24T00:50:42;18.80;;;11.63;;
41623;SDS011;27319;50.306;18.926;2023-04-24T00:54:43;17.23;;;11.77;;
41623;SDS011;27319;50.306;18.926;2023-04-24T00:58:44;15.05;;;10.90;;
41623;SDS011;27319;50.306;18.926;2023-04-24T01:02:44;20.92;;;11.38;;
41623;SDS011;27319;50.306;18.926;2023-04-24T01:05:46;15.65;;;11.15;;
41623;SDS011;27319;50.306;18.926;2023-04-24T01:09:47;14.23;;;9.75;;
41623;SDS011;27319;50.306;18.926;2023-04-24T01:13:48;17.60;;;10.55;;
41623;SDS011;27319;50.306;18.926;2023-04-24T01:17:48;17.80;;;9.43;;
41623;SDS011;27319;50.306;18.926;2023-04-24T01:21:50;16.65;;;11.13;;
41623;SDS011;27319;50.306;18.926;2023-04-24T01:25:53;16.73;;;10.95;;
41623;SDS011;27319;50.306;18.926;2023-04-24T01:29:54;12.88;;;9.20;;
41623;SDS011;27319;50.306;18.926;2023-04-24T01:33:54;12.95;;;9.73;;
41623;SDS011;27319;50.306;18.926;2023-04-24T01:37:55;14.38;;;10.13;;
41623;SDS011;27319;50.306;18.926;2023-04-24T01:41:56;14.60;;;9.30;;
41623;SDS011;27319;50.306;18.926;2023-04-24T01:45:57;18.90;;;9.57;;
41623;SDS011;27319;50.306;18.926;2023-04-24T01:49:57;12.13;;;9.88;;
41623;SDS011;27319;50.306;18.926;2023-04-24T01:53:58;15.30;;;9.60;;
41623;SDS011;27319;50.306;18.926;2023-04-24T01:57:59;18.17;;;10.02;;
41623;SDS011;27319;50.306;18.926;2023-04-24T02:01:59;14.18;;;9.35;;
41623;SDS011;27319;50.306;18.926;2023-04-24T02:05:02;15.57;;;10.52;;
41623;SDS011;27319;50.306;18.926;2023-04-24T02:08:43;15.90;;;9.88;;
41623;SDS011;27319;50.306;18.926;2023-04-24T02:12:44;16.30;;;9.70;;
41623;SDS011;27319;50.306;18.926;2023-04-24T02:15:45;15.23;;;10.05;;
41623;SDS011;27319;50.306;18.926;2023-04-24T02:18:46;20.42;;;9.93;;
41623;SDS011;27319;50.306;18.926;2023-04-24T02:21:47;15.75;;;10.07;;
41623;SDS011;27319;50.306;18.926;2023-04-24T02:25:48;26.10;;;10.18;;
41623;SDS011;27319;50.306;18.926;2023-04-24T02:29:50;11.85;;;8.07;;
41623;SDS011;27319;50.306;18.926;2023-04-24T02:33:51;12.55;;;8.60;;
41623;SDS011;27319;50.306;18.926;2023-04-24T02:37:52;21.15;;;8.13;;
41623;SDS011;27319;50.306;18.926;2023-04-24T02:41:53;12.55;;;7.65;;
41623;SDS011;27319;50.306;18.926;2023-04-24T02:45:53;14.90;;;8.98;;
41623;SDS011;27319;50.306;18.926;2023-04-24T02:49:30;18.80;;;7.97;;
41623;SDS011;27319;50.306;18.926;2023-04-24T02:53:30;14.85;;;8.30;;
41623;SDS011;27319;50.306;18.926;2023-04-24T02:57:31;14.70;;;8.57;;
41623;SDS011;27319;50.306;18.926;2023-04-24T03:01:32;13.80;;;9.63;;
41623;SDS011;27319;50.306;18.926;2023-04-24T03:05:33;15.40;;;8.93;;
41623;SDS011;27319;50.306;18.926;2023-04-24T03:08:34;18.48;;;9.57;;
41623;SDS011;27319;50.306;18.926;2023-04-24T03:12:34;18.65;;;8.05;;
41623;SDS011;27319;50.306;18.926;2023-04-24T03:16:35;13.45;;;8.90;;
41623;SDS011;27319;50.306;18.926;2023-04-24T03:20:36;14.27;;;8.02;;
41623;SDS011;27319;50.306;18.926;2023-04-24T03:24:37;13.02;;;8.15;;
41623;SDS011;27319;50.306;18.926;2023-04-24T03:28:37;14.88;;;8.32;;
41623;SDS011;27319;50.306;18.926;2023-04-24T03:32:38;13.27;;;8.88;;
41623;SDS011;27319;50.306;18.926;2023-04-24T03:36:39;15.38;;;9.40;;
41623;SDS011;27319;50.306;18.926;2023-04-24T03:39:40;15.63;;;9.23;;
41623;SDS011;27319;50.306;18.926;2023-04-24T03:43:40;13.18;;;8.13;;
41623;SDS011;27319;50.306;18.926;2023-04-24T03:47:37;12.10;;;8.93;;
41623;SDS011;27319;50.306;18.926;2023-04-24T03:51:38;17.45;;;9.43;;
41623;SDS011;27319;50.306;18.926;2023-04-24T03:55:13;13.70;;;8.85;;
41623;SDS011;27319;50.306;18.926;2023-04-24T03:58:14;18.65;;;8.95;;
41623;SDS011;27319;50.306;18.926;2023-04-24T04:01:50;17.13;;;8.57;;
41623;SDS011;27319;50.306;18.926;2023-04-24T04:04:51;12.80;;;8.63;;
41623;SDS011;27319;50.306;18.926;2023-04-24T04:08:51;15.00;;;8.73;;
41623;SDS011;27319;50.306;18.926;2023-04-24T04:12:52;12.60;;;8.18;;
41623;SDS011;27319;50.306;18.926;2023-04-24T04:16:53;14.90;;;7.93;;
41623;SDS011;27319;50.306;18.926;2023-04-24T04:20:54;13.43;;;9.00;;
41623;SDS011;27319;50.306;18.926;2023-04-24T04:24:54;17.02;;;8.45;;
41623;SDS011;27319;50.306;18.926;2023-04-24T04:28:55;10.48;;;7.75;;
41623;SDS011;27319;50.306;18.926;2023-04-24T04:32:56;17.13;;;9.23;;
41623;SDS011;27319;50.306;18.926;2023-04-24T04:36:57;20.42;;;8.98;;
41623;SDS011;27319;50.306;18.926;2023-04-24T04:40:58;12.27;;;8.15;;
41623;SDS011;27319;50.306;18.926;2023-04-24T04:44:58;13.23;;;7.75;;
41623;SDS011;27319;50.306;18.926;2023-04-24T04:49:00;17.40;;;7.85;;
41623;SDS011;27319;50.306;18.926;2023-04-24T04:53:00;12.48;;;6.90;;
41623;SDS011;27319;50.306;18.926;2023-04-24T04:57:00;12.23;;;7.10;;
41623;SDS011;27319;50.306;18.926;2023-04-24T05:01:01;13.80;;;7.70;;
41623;SDS011;27319;50.306;18.926;2023-04-24T05:04:07;10.70;;;6.60;;
41623;SDS011;27319;50.306;18.926;2023-04-24T05:08:07;11.95;;;6.88;;
41623;SDS011;27319;50.306;18.926;2023-04-24T05:12:08;12.60;;;6.68;;
41623;SDS011;27319;50.306;18.926;2023-04-24T05:16:09;8.80;;;5.82;;
41623;SDS011;27319;50.306;18.926;2023-04-24T05:20:10;7.80;;;5.40;;
41623;SDS011;27319;50.306;18.926;2023-04-24T05:24:10;7.43;;;5.22;;
41623;SDS011;27319;50.306;18.926;2023-04-24T05:28:11;12.05;;;5.70;;
41623;SDS011;27319;50.306;18.926;2023-04-24T05:32:12;8.50;;;5.85;;
41623;SDS011;27319;50.306;18.926;2023-04-24T05:35:29;9.23;;;5.15;;
41623;SDS011;27319;50.306;18.926;2023-04-24T05:38:30;13.18;;;4.90;;
41623;SDS011;27319;50.306;18.926;2023-04-24T05:42:31;11.73;;;5.28;;
41623;SDS011;27319;50.306;18.926;2023-04-24T05:46:31;11.57;;;5.30;;
41623;SDS011;27319;50.306;18.926;2023-04-24T05:50:32;7.00;;;5.13;;
41623;SDS011;27319;50.306;18.926;2023-04-24T05:54:33;9.63;;;5.80;;
41623;SDS011;27319;50.306;18.926;2023-04-24T05:58:34;12.48;;;6.07;;
41623;SDS011;27319;50.306;18.926;2023-04-24T06:02:34;9.68;;;5.57;;
41623;SDS011;27319;50.306;18.926;2023-04-24T06:05:36;8.65;;;5.50;;
41623;SDS011;27319;50.306;18.926;2023-04-24T06:09:36;8.82;;;6.25;;
41623;SDS011;27319;50.306;18.926;2023-04-24T06:13:37;11.10;;;5.35;;
41623;SDS011;27319;50.306;18.926;2023-04-24T06:17:38;9.05;;;5.45;;
41623;SDS011;27319;50.306;18.926;2023-04-24T06:21:39;10.80;;;5.70;;
41623;SDS011;27319;50.306;18.926;2023-04-24T06:25:40;11.73;;;5.18;;
41623;SDS011;27319;50.306;18.926;2023-04-24T06:29:40;9.90;;;4.78;;
41623;SDS011;27319;50.306;18.926;2023-04-24T06:33:41;8.40;;;4.75;;
41623;SDS011;27319;50.306;18.926;2023-04-24T06:37:42;11.15;;;5.03;;
41623;SDS011;27319;50.306;18.926;2023-04-24T06:41:43;11.25;;;4.65;;
41623;SDS011;27319;50.306;18.926;2023-04-24T06:45:43;9.80;;;4.93;;
41623;SDS011;27319;50.306;18.926;2023-04-24T06:49:44;10.60;;;4.90;;
41623;SDS011;27319;50.306;18.926;2023-04-24T06:53:45;8.23;;;4.20;;
41623;SDS011;27319;50.306;18.926;2023-04-24T06:57:46;8.23;;;4.13;;
41623;SDS011;27319;50.306;18.926;2023-04-24T07:01:47;9.82;;;4.78;;
41623;SDS011;27319;50.306;18.926;2023-04-24T07:05:47;15.77;;;4.00;;
41623;SDS011;27319;50.306;18.926;2023-04-24T07:09:47;10.90;;;3.78;;
41623;SDS011;27319;50.306;18.926;2023-04-24T07:13:48;5.97;;;4.22;;
41623;SDS011;27319;50.306;18.926;2023-04-24T07:17:49;5.38;;;3.53;;
41623;SDS011;27319;50.306;18.926;2023-04-24T07:21:50;9.10;;;3.90;;
41623;SDS011;27319;50.306;18.926;2023-04-24T07:25:50;5.05;;;3.30;;
41623;SDS011;27319;50.306;18.926;2023-04-24T07:29:51;7.25;;;3.60;;
41623;SDS011;27319;50.306;18.926;2023-04-24T07:33:52;10.25;;;3.55;;
41623;SDS011;27319;50.306;18.926;2023-04-24T07:37:53;6.07;;;3.92;;
41623;SDS011;27319;50.306;18.926;2023-04-24T07:41:53;8.05;;;4.45;;
41623;SDS011;27319;50.306;18.926;2023-04-24T07:45:54;6.65;;;3.65;;
41623;SDS011;27319;50.306;18.926;2023-04-24T07:49:55;9.82;;;4.20;;
41623;SDS011;27319;50.306;18.926;2023-04-24T07:53:55;12.50;;;4.47;;
41623;SDS011;27319;50.306;18.926;2023-04-24T07:57:56;9.88;;;4.22;;
41623;SDS011;27319;50.306;18.926;2023-04-24T08:01:57;7.47;;;4.43;;
41623;SDS011;27319;50.306;18.926;2023-04-24T08:04:58;11.10;;;3.95;;
41623;SDS011;27319;50.306;18.926;2023-04-24T08:08:59;12.40;;;4.28;;
41623;SDS011;27319;50.306;18.926;2023-04-24T08:12:59;9.57;;;3.55;;
41623;SDS011;27319;50.306;18.926;2023-04-24T08:17:00;10.80;;;6.00;;
41623;SDS011;27319;50.306;18.926;2023-04-24T08:21:01;10.02;;;5.63;;
41623;SDS011;27319;50.306;18.926;2023-04-24T08:25:02;7.18;;;4.28;;
41623;SDS011;27319;50.306;18.926;2023-04-24T08:29:03;7.32;;;3.45;;
41623;SDS011;27319;50.306;18.926;2023-04-24T08:33:03;5.65;;;3.17;;
41623;SDS011;27319;50.306;18.926;2023-04-24T08:37:04;5.45;;;3.90;;
41623;SDS011;27319;50.306;18.926;2023-04-24T08:41:05;6.57;;;3.60;;
41623;SDS011;27319;50.306;18.926;2023-04-24T08:45:06;5.90;;;3.60;;
41623;SDS011;27319;50.306;18.926;2023-04-24T08:49:07;7.15;;;3.60;;
41623;SDS011;27319;50.306;18.926;2023-04-24T08:53:08;6.57;;;3.28;;
41623;SDS011;27319;50.306;18.926;2023-04-24T08:57:08;6.82;;;3.42;;
41623;SDS011;27319;50.306;18.926;2023-04-24T09:01:08;5.88;;;4.18;;
41623;SDS011;27319;50.306;18.926;2023-04-24T09:05:09;7.30;;;3.38;;
41623;SDS011;27319;50.306;18.926;2023-04-24T09:09:10;6.03;;;3.63;;
41623;SDS011;27319;50.306;18.926;2023-04-24T09:13:11;5.22;;;3.53;;
41623;SDS011;27319;50.306;18.926;2023-04-24T09:17:12;6.32;;;4.07;;
41623;SDS011;27319;50.306;18.926;2023-04-24T09:21:12;9.52;;;4.65;;
41623;SDS011;27319;50.306;18.926;2023-04-24T09:25:13;7.60;;;4.00;;
41623;SDS011;27319;50.306;18.926;2023-04-24T09:29:15;7.18;;;3.83;;
41623;SDS011;27319;50.306;18.926;2023-04-24T09:33:15;8.02;;;5.00;;
41623;SDS011;27319;50.306;18.926;2023-04-24T09:37:28;6.47;;;3.92;;
41623;SDS011;27319;50.306;18.926;2023-04-24T09:41:33;6.57;;;4.20;;
41623;SDS011;27319;50.306;18.926;2023-04-24T09:45:39;8.18;;;5.57;;
41623;SDS011;27319;50.306;18.926;2023-04-24T09:49:45;8.95;;;5.22;;
41623;SDS011;27319;50.306;18.926;2023-04-24T09:54:17;5.88;;;4.53;;
41623;SDS011;27319;50.306;18.926;2023-04-24T09:58:17;11.93;;;4.55;;
41623;SDS011;27319;50.306;18.926;2023-04-24T10:02:19;7.35;;;4.30;;
41623;SDS011;27319;50.306;18.926;2023-04-24T10:06:43;10.68;;;4.35;;
41623;SDS011;27319;50.306;18.926;2023-04-24T10:10:55;6.68;;;4.22;;
41623;SDS011;27319;50.306;18.926;2023-04-24T10:14:56;13.27;;;4.20;;
41623;SDS011;27319;50.306;18.926;2023-04-24T10:19:02;14.43;;;5.07;;
41623;SDS011;27319;50.306;18.926;2023-04-24T10:23:04;14.43;;;4.18;;
41623;SDS011;27319;50.306;18.926;2023-04-24T10:27:07;7.78;;;3.63;;
41623;SDS011;27319;50.306;18.926;2023-04-24T10:31:07;12.27;;;4.85;;
41623;SDS011;27319;50.306;18.926;2023-04-24T10:35:13;14.15;;;4.25;;
41623;SDS011;27319;50.306;18.926;2023-04-24T10:39:15;10.32;;;3.85;;
41623;SDS011;27319;50.306;18.926;2023-04-24T10:43:16;8.85;;;3.88;;
41623;SDS011;27319;50.306;18.926;2023-04-24T10:47:18;6.80;;;3.80;;
41623;SDS011;27319;50.306;18.926;2023-04-24T10:51:22;10.07;;;3.88;;
41623;SDS011;27319;50.306;18.926;2023-04-24T10:55:06;6.00;;;3.90;;
41623;SDS011;27319;50.306;18.926;2023-04-24T10:59:26;5.88;;;4.03;;
41623;SDS011;27319;50.306;18.926;2023-04-24T11:03:27;9.13;;;3.85;;
41623;SDS011;27319;50.306;18.926;2023-04-24T11:07:27;11.20;;;3.67;;
41623;SDS011;27319;50.306;18.926;2023-04-24T11:11:28;7.72;;;4.00;;
41623;SDS011;27319;50.306;18.926;2023-04-24T11:15:29;8.60;;;4.22;;
41623;SDS011;27319;50.306;18.926;2023-04-24T11:19:29;8.75;;;3.90;;
41623;SDS011;27319;50.306;18.926;2023-04-24T11:22:30;12.77;;;4.65;;
41623;SDS011;27319;50.306;18.926;2023-04-24T11:26:31;15.40;;;4.53;;
41623;SDS011;27319;50.306;18.926;2023-04-24T11:30:38;18.10;;;5.40;;
41623;SDS011;27319;50.306;18.926;2023-04-24T11:34:38;9.00;;;4.38;;
41623;SDS011;27319;50.306;18.926;2023-04-24T11:38:45;10.35;;;4.60;;
41623;SDS011;27319;50.306;18.926;2023-04-24T11:42:46;8.40;;;4.32;;
41623;SDS011;27319;50.306;18.926;2023-04-24T11:46:46;5.05;;;4.53;;
41623;SDS011;27319;50.306;18.926;2023-04-24T11:50:47;7.82;;;4.82;;
41623;SDS011;27319;50.306;18.926;2023-04-24T11:54:48;9.88;;;5.28;;
41623;SDS011;27319;50.306;18.926;2023-04-24T11:58:48;7.22;;;4.90;;
41623;SDS011;27319;50.306;18.926;2023-04-24T12:02:49;12.27;;;4.68;;
41623;SDS011;27319;50.306;18.926;2023-04-24T12:07:02;7.97;;;4.45;;
41623;SDS011;27319;50.306;18.926;2023-04-24T12:11:03;8.00;;;4.75;;
41623;SDS011;27319;50.306;18.926;2023-04-24T12:15:06;11.25;;;4.90;;
41623;SDS011;27319;50.306;18.926;2023-04-24T12:19:04;12.38;;;6.10;;
41623;SDS011;27319;50.306;18.926;2023-04-24T12:23:04;7.55;;;4.82;;
41623;SDS011;27319;50.306;18.926;2023-04-24T12:27:20;19.10;;;5.05;;
41623;SDS011;27319;50.306;18.926;2023-04-24T12:31:24;24.27;;;5.93;;
41623;SDS011;27319;50.306;18.926;2023-04-24T12:35:25;12.07;;;4.28;;
41623;SDS011;27319;50.306;18.926;2023-04-24T12:39:28;13.07;;;4.70;;
41623;SDS011;27319;50.306;18.926;2023-04-24T12:43:51;6.82;;;4.30;;
41623;SDS011;27319;50.306;18.926;2023-04-24T12:47:53;8.82;;;4.60;;
41623;SDS011;27319;50.306;18.926;2023-04-24T12:51:57;7.57;;;4.72;;
41623;SDS011;27319;50.306;18.926;2023-04-24T12:55:57;7.30;;;4.50;;
41623;SDS011;27319;50.306;18.926;2023-04-24T12:59:58;7.95;;;3.80;;
41623;SDS011;27319;50.306;18.926;2023-04-24T13:03:59;4.75;;;3.25;;
41623;SDS011;27319;50.306;18.926;2023-04-24T13:08:00;4.82;;;3.80;;
41623;SDS011;27319;50.306;18.926;2023-04-24T13:12:00;6.68;;;2.92;;
41623;SDS011;27319;50.306;18.926;2023-04-24T13:16:03;6.28;;;3.30;;
41623;SDS011;27319;50.306;18.926;2023-04-24T13:20:04;5.28;;;3.55;;
41623;SDS011;27319;50.306;18.926;2023-04-24T13:24:05;12.98;;;3.78;;
41623;SDS011;27319;50.306;18.926;2023-04-24T13:28:06;5.75;;;3.30;;
41623;SDS011;27319;50.306;18.926;2023-04-24T13:32:07;6.80;;;2.92;;
41623;SDS011;27319;50.306;18.926;2023-04-24T13:36:08;8.10;;;3.60;;
41623;SDS011;27319;50.306;18.926;2023-04-24T13:40:08;3.45;;;3.00;;
41623;SDS011;27319;50.306;18.926;2023-04-24T13:47:39;8.23;;;4.28;;
41623;SDS011;27319;50.306;18.926;2023-04-24T13:51:40;4.90;;;3.30;;
41623;SDS011;27319;50.306;18.926;2023-04-24T13:59:40;5.38;;;3.78;;
41623;SDS011;27319;50.306;18.926;2023-04-24T14:02:42;5.75;;;3.70;;
41623;SDS011;27319;50.306;18.926;2023-04-24T14:05:45;5.28;;;4.35;;
41623;SDS011;27319;50.306;18.926;2023-04-24T14:09:21;11.90;;;7.35;;
41623;SDS011;27319;50.306;18.926;2023-04-24T14:13:04;8.02;;;5.30;;
41623;SDS011;27319;50.306;18.926;2023-04-24T14:17:27;6.88;;;4.35;;
41623;SDS011;27319;50.306;18.926;2023-04-24T14:21:43;8.70;;;5.32;;
41623;SDS011;27319;50.306;18.926;2023-04-24T14:25:51;7.80;;;5.20;;
41623;SDS011;27319;50.306;18.926;2023-04-24T14:29:55;6.97;;;5.22;;
41623;SDS011;27319;50.306;18.926;2023-04-24T14:34:05;8.45;;;4.78;;
41623;SDS011;27319;50.306;18.926;2023-04-24T14:38:08;16.45;;;6.53;;
41623;SDS011;27319;50.306;18.926;2023-04-24T14:42:09;11.10;;;5.03;;
41623;SDS011;27319;50.306;18.926;2023-04-24T14:46:10;10.98;;;6.15;;
41623;SDS011;27319;50.306;18.926;2023-04-24T14:50:11;8.50;;;5.95;;
41623;SDS011;27319;50.306;18.926;2023-04-24T14:54:11;9.00;;;4.55;;
41623;SDS011;27319;50.306;18.926;2023-04-24T14:58:12;8.88;;;3.97;;
41623;SDS011;27319;50.306;18.926;2023-04-24T15:02:13;7.53;;;4.13;;
41623;SDS011;27319;50.306;18.926;2023-04-24T15:05:14;8.07;;;4.47;;
41623;SDS011;27319;50.306;18.926;2023-04-24T15:08:15;7.78;;;4.53;;
41623;SDS011;27319;50.306;18.926;2023-04-24T15:11:15;6.97;;;4.50;;
41623;SDS011;27319;50.306;18.926;2023-04-24T15:15:16;7.45;;;5.60;;
41623;SDS011;27319;50.306;18.926;2023-04-24T15:18:25;8.23;;;4.60;;
41623;SDS011;27319;50.306;18.926;2023-04-24T15:21:28;6.53;;;4.63;;
41623;SDS011;27319;50.306;18.926;2023-04-24T15:25:29;8.10;;;4.50;;
41623;SDS011;27319;50.306;18.926;2023-04-24T15:29:29;5.30;;;4.32;;
41623;SDS011;27319;50.306;18.926;2023-04-24T15:33:30;5.75;;;4.63;;
41623;SDS011;27319;50.306;18.926;2023-04-24T15:37:31;7.68;;;3.97;;
41623;SDS011;27319;50.306;18.926;2023-04-24T15:41:32;8.40;;;4.65;;
41623;SDS011;27319;50.306;18.926;2023-04-24T15:45:33;7.38;;;4.40;;
41623;SDS011;27319;50.306;18.926;2023-04-24T15:49:33;7.05;;;4.63;;
41623;SDS011;27319;50.306;18.926;2023-04-24T15:53:34;5.90;;;4.40;;
41623;SDS011;27319;50.306;18.926;2023-04-24T15:57:35;5.55;;;4.35;;
41623;SDS011;27319;50.306;18.926;2023-04-24T16:01:36;9.23;;;6.20;;
41623;SDS011;27319;50.306;18.926;2023-04-24T16:05:36;9.88;;;5.18;;
41623;SDS011;27319;50.306;18.926;2023-04-24T16:09:37;9.40;;;5.38;;
41623;SDS011;27319;50.306;18.926;2023-04-24T16:13:38;8.35;;;4.93;;
41623;SDS011;27319;50.306;18.926;2023-04-24T16:17:39;13.43;;;5.50;;
41623;SDS011;27319;50.306;18.926;2023-04-24T16:21:39;8.48;;;5.38;;
41623;SDS011;27319;50.306;18.926;2023-04-24T16:25:40;8.57;;;5.13;;
41623;SDS011;27319;50.306;18.926;2023-04-24T16:29:41;6.38;;;5.47;;
41623;SDS011;27319;50.306;18.926;2023-04-24T16:32:42;8.18;;;6.13;;
41623;SDS011;27319;50.306;18.926;2023-04-24T16:36:42;10.07;;;6.25;;
41623;SDS011;27319;50.306;18.926;2023-04-24T16:40:43;8.15;;;5.80;;
41623;SDS011;27319;50.306;18.926;2023-04-24T16:44:44;9.32;;;5.93;;
41623;SDS011;27319;50.306;18.926;2023-04-24T16:48:46;12.23;;;6.47;;
41623;SDS011;27319;50.306;18.926;2023-04-24T16:52:47;10.77;;;6.82;;
41623;SDS011;27319;50.306;18.926;2023-04-24T16:56:47;8.85;;;6.55;;
41623;SDS011;27319;50.306;18.926;2023-04-24T17:00:48;8.95;;;6.28;;
41623;SDS011;27319;50.306;18.926;2023-04-24T17:04:09;8.23;;;6.53;;
41623;SDS011;27319;50.306;18.926;2023-04-24T17:07:10;11.35;;;7.03;;
41623;SDS011;27319;50.306;18.926;2023-04-24T17:10:11;10.32;;;9.20;;
41623;SDS011;27319;50.306;18.926;2023-04-24T17:14:12;14.07;;;9.20;;
41623;SDS011;27319;50.306;18.926;2023-04-24T17:18:12;13.18;;;10.48;;
41623;SDS011;27319;50.306;18.926;2023-04-24T17:22:13;16.88;;;10.77;;
41623;SDS011;27319;50.306;18.926;2023-04-24T17:25:14;14.50;;;9.65;;
41623;SDS011;27319;50.306;18.926;2023-04-24T17:29:14;13.75;;;8.75;;
41623;SDS011;27319;50.306;18.926;2023-04-24T17:33:15;11.95;;;8.82;;
41623;SDS011;27319;50.306;18.926;2023-04-24T17:36:35;13.40;;;8.27;;
41623;SDS011;27319;50.306;18.926;2023-04-24T17:40:35;18.60;;;12.15;;
41623;SDS011;27319;50.306;18.926;2023-04-24T17:44:36;18.73;;;13.23;;
41623;SDS011;27319;50.306;18.926;2023-04-24T17:48:37;15.18;;;11.18;;
41623;SDS011;27319;50.306;18.926;2023-04-24T17:52:38;14.38;;;10.52;;
41623;SDS011;27319;50.306;18.926;2023-04-24T17:56:38;14.02;;;10.02;;
41623;SDS011;27319;50.306;18.926;2023-04-24T18:00:39;11.93;;;8.13;;
41623;SDS011;27319;50.306;18.926;2023-04-24T18:04:07;12.38;;;9.25;;
41623;SDS011;27319;50.306;18.926;2023-04-24T18:08:08;12.65;;;8.60;;
41623;SDS011;27319;50.306;18.926;2023-04-24T18:12:09;17.20;;;9.95;;
41623;SDS011;27319;50.306;18.926;2023-04-24T18:16:09;19.75;;;10.85;;
41623;SDS011;27319;50.306;18.926;2023-04-24T18:19:10;15.70;;;9.82;;
41623;SDS011;27319;50.306;18.926;2023-04-24T18:22:11;14.50;;;10.95;;
41623;SDS011;27319;50.306;18.926;2023-04-24T18:26:12;13.38;;;9.57;;
41623;SDS011;27319;50.306;18.926;2023-04-24T18:30:13;15.45;;;10.05;;
41623;SDS011;27319;50.306;18.926;2023-04-24T18:33:15;14.23;;;10.82;;
41623;SDS011;27319;50.306;18.926;2023-04-24T18:37:16;15.68;;;11.45;;
41623;SDS011;27319;50.306;18.926;2023-04-24T18:41:17;21.80;;;14.50;;
41623;SDS011;27319;50.306;18.926;2023-04-24T18:45:18;17.98;;;12.80;;
41623;SDS011;27319;50.306;18.926;2023-04-24T18:49:19;36.38;;;22.05;;
41623;SDS011;27319;50.306;18.926;2023-04-24T18:53:19;25.85;;;16.58;;
41623;SDS011;27319;50.306;18.926;2023-04-24T18:57:20;19.10;;;12.77;;
41623;SDS011;27319;50.306;18.926;2023-04-24T19:01:22;19.65;;;14.18;;
41623;SDS011;27319;50.306;18.926;2023-04-24T19:05:24;21.20;;;15.68;;
41623;SDS011;27319;50.306;18.926;2023-04-24T19:09:24;28.23;;;20.25;;
41623;SDS011;27319;50.306;18.926;2023-04-24T19:13:25;22.70;;;15.55;;
41623;SDS011;27319;50.306;18.926;2023-04-24T19:17:26;26.27;;;17.83;;
41623;SDS011;27319;50.306;18.926;2023-04-24T19:21:27;23.55;;;16.45;;
41623;SDS011;27319;50.306;18.926;2023-04-24T19:25:27;23.42;;;15.52;;
41623;SDS011;27319;50.306;18.926;2023-04-24T19:29:28;24.92;;;15.10;;
41623;SDS011;27319;50.306;18.926;2023-04-24T19:33:17;20.50;;;15.27;;
41623;SDS011;27319;50.306;18.926;2023-04-24T19:37:18;26.38;;;15.52;;
41623;SDS011;27319;50.306;18.926;2023-04-24T19:41:18;24.05;;;15.75;;
41623;SDS011;27319;50.306;18.926;2023-04-24T19:45:19;22.02;;;17.20;;
41623;SDS011;27319;50.306;18.926;2023-04-24T19:49:20;23.13;;;16.45;;
41623;SDS011;27319;50.306;18.926;2023-04-24T19:53:21;24.27;;;16.40;;
41623;SDS011;27319;50.306;18.926;2023-04-24T19:57:05;25.23;;;19.73;;
41623;SDS011;27319;50.306;18.926;2023-04-24T20:00:06;28.40;;;17.95;;
41623;SDS011;27319;50.306;18.926;2023-04-24T20:04:06;23.40;;;17.58;;
41623;SDS011;27319;50.306;18.926;2023-04-24T20:07:09;24.42;;;18.88;;
41623;SDS011;27319;50.306;18.926;2023-04-24T20:11:09;30.90;;;25.05;;
41623;SDS011;27319;50.306;18.926;2023-04-24T20:15:10;30.58;;;23.80;;
41623;SDS011;27319;50.306;18.926;2023-04-24T20:19:11;23.55;;;18.80;;
41623;SDS011;27319;50.306;18.926;2023-04-24T20:23:12;26.35;;;19.17;;
41623;SDS011;27319;50.306;18.926;2023-04-24T20:27:13;27.77;;;20.63;;
41623;SDS011;27319;50.306;18.926;2023-04-24T20:31:13;27.13;;;19.67;;
41623;SDS011;27319;50.306;18.926;2023-04-24T20:35:09;28.55;;;19.55;;
41623;SDS011;27319;50.306;18.926;2023-04-24T20:39:10;26.33;;;19.40;;
41623;SDS011;27319;50.306;18.926;2023-04-24T20:43:11;25.50;;;20.73;;
41623;SDS011;27319;50.306;18.926;2023-04-24T20:47:12;27.10;;;21.70;;
41623;SDS011;27319;50.306;18.926;2023-04-24T20:51:12;23.48;;;18.73;;
41623;SDS011;27319;50.306;18.926;2023-04-24T20:55:13;27.02;;;22.23;;
41623;SDS011;27319;50.306;18.926;2023-04-24T20:59:14;23.77;;;18.77;;
41623;SDS011;27319;50.306;18.926;2023-04-24T21:03:15;24.63;;;18.25;;
41623;SDS011;27319;50.306;18.926;2023-04-24T21:07:15;19.77;;;15.80;;
41623;SDS011;27319;50.306;18.926;2023-04-24T21:11:16;19.27;;;13.70;;
41623;SDS011;27319;50.306;18.926;2023-04-24T21:15:17;14.20;;;12.55;;
41623;SDS011;27319;50.306;18.926;2023-04-24T21:19:18;16.02;;;12.02;;
41623;SDS011;27319;50.306;18.926;2023-04-24T21:23:19;15.02;;;10.43;;
41623;SDS011;27319;50.306;18.926;2023-04-24T21:27:19;11.48;;;10.27;;
41623;SDS011;27319;50.306;18.926;2023-04-24T21:31:20;13.20;;;10.60;;
41623;SDS011;27319;50.306;18.926;2023-04-24T21:39:00;19.77;;;10.25;;
41623;SDS011;27319;50.306;18.926;2023-04-24T21:43:01;11.00;;;8.10;;
41623;SDS011;27319;50.306;18.926;2023-04-24T21:46:02;7.72;;;6.22;;
41623;SDS011;27319;50.306;18.926;2023-04-24T21:49:03;6.45;;;4.65;;
41623;SDS011;27319;50.306;18.926;2023-04-24T21:52:04;4.57;;;3.78;;
41623;SDS011;27319;50.306;18.926;2023-04-24T21:56:04;4.90;;;3.70;;
41623;SDS011;27319;50.306;18.926;2023-04-24T22:00:06;3.95;;;2.75;;
41623;SDS011;27319;50.306;18.926;2023-04-24T22:04:06;4.88;;;2.97;;
41623;SDS011;27319;50.306;18.926;2023-04-24T22:07:07;4.53;;;3.17;;
41623;SDS011;27319;50.306;18.926;2023-04-24T22:10:08;5.68;;;4.20;;
41623;SDS011;27319;50.306;18.926;2023-04-24T22:13:10;8.82;;;5.15;;
41623;SDS011;27319;50.306;18.926;2023-04-24T22:16:11;8.68;;;5.35;;
41623;SDS011;27319;50.306;18.926;2023-04-24T22:20:12;8.80;;;6.78;;
41623;SDS011;27319;50.306;18.926;2023-04-24T22:24:12;8.18;;;5.50;;
41623;SDS011;27319;50.306;18.926;2023-04-24T22:28:13;6.57;;;4.57;;
41623;SDS011;27319;50.306;18.926;2023-04-24T22:32:14;6.10;;;4.15;;
41623;SDS011;27319;50.306;18.926;2023-04-24T22:36:15;6.97;;;4.40;;
41623;SDS011;27319;50.306;18.926;2023-04-24T22:40:16;6.05;;;4.40;;
41623;SDS011;27319;50.306;18.926;2023-04-24T22:44:16;7.82;;;4.40;;
41623;SDS011;27319;50.306;18.926;2023-04-24T22:48:17;6.78;;;4.63;;
41623;SDS011;27319;50.306;18.926;2023-04-24T22:52:18;10.27;;;6.07;;
41623;SDS011;27319;50.306;18.926;2023-04-24T22:56:19;8.30;;;5.72;;
41623;SDS011;27319;50.306;18.926;2023-04-24T23:00:19;5.82;;;4.75;;